Excalibur — IBAP — position and weather

sailwx.info

Track history (hours):
 
Tides and Currents Weather Stations Pressure Air Temp Water Temp Dewpoint Dewpoint Depression Visibility Wind Speed Wind Dir Waves Ship Positions

Excalibur

Last reported at 2018-May-18 07:00 UTC. Time now 2018-May-24 07:35 UTC.
Position N 42°27' E 039°33'.

Length 104 m; draft 5.8 m.

Type: Ship. MMSI: 247241200.

Date/timePositionNaut miles runAvg speedWind from/ knotsBaromVisibWave heightAir tempDewpointWater temp
2018-May-18 07:00N 42°27' E 039°33'814.0
2018-May-18 06:27N 42°28' E 039°23'614.2
2018-May-18 06:00N 42°29' E 039°14'1614.5
2018-May-18 04:54N 42°33' E 038°53'1213.9
2018-May-18 04:02N 42°35' E 038°37'113.4
2018-May-18 04:00N 42°35' E 038°36'713.2
2018-May-18 03:30N 42°36' E 038°27'612.2
2018-May-18 02:59N 42°37' E 038°19'712.1
2018-May-18 02:24N 42°38' E 038°10'512.0
2018-May-18 02:00N 42°39' E 038°03'612.1
2018-May-18 01:30N 42°40' E 037°55'1312.3
2018-May-18 00:26N 42°43' E 037°37'512.4
2018-May-18 00:00N 42°44' E 037°30'612.3
2018-May-17 23:30N 42°45' E 037°22'612.3
2018-May-17 23:00N 42°46' E 037°14'612.5
2018-May-17 22:30N 42°46' E 037°05'612.4
2018-May-17 22:00N 42°48' E 036°57'712.5
2018-May-17 21:25N 42°49' E 036°47'2512.5
2018-May-17 19:28N 42°53' E 036°14'512.1
2018-May-17 19:00N 42°54' E 036°07'612.1
2018-May-17 18:30N 42°55' E 035°59'612.0
2018-May-17 18:00N 42°56' E 035°51'4 8.5
2018-May-17 17:30N 42°56' E 035°45'4 7.8
2018-May-17 17:00N 42°56' E 035°40'510.8
2018-May-17 16:31N 42°56' E 035°32'713.9
2018-May-17 16:00N 42°56' E 035°23'713.8
2018-May-17 15:30N 42°56' E 035°13'713.8
2018-May-17 15:00N 42°56' E 035°04'713.6
2018-May-17 14:30N 42°57' E 034°55'1613.4
2018-May-17 13:16N 42°56' E 034°32'3513.1
2018-May-17 10:39N 42°56' E 033°45'313.1
2018-May-17 10:24N 42°56' E 033°40'713.3
2018-May-17 09:53N 42°55' E 033°31'384 9.2
2018-May-15 16:02N 39°56' E 025°58'0 9.1
2018-May-15 16:01N 39°56' E 025°58'611.1
2018-May-15 15:29N 39°51' E 025°53'1511.6
2018-May-15 14:13N 39°38' E 025°46'10812.9
2018-May-15 05:48N 37°50' E 025°43'1814.3
2018-May-15 04:33N 37°33' E 025°51'113.9
2018-May-15 04:30N 37°32' E 025°52'713.9
2018-May-15 04:00N 37°26' E 025°54'  
Track history (hours):
 
Tides and Currents Weather Stations Pressure Air Temp Water Temp Dewpoint Dewpoint Depression Visibility Wind Speed Wind Dir Waves Ship Positions

Excalibur

Last reported at 2018-May-18 07:00 UTC. Time now 2018-May-24 07:35 UTC.
Position N 42°27' E 039°33'.

Length 104 m; draft 5.8 m.

Type: Ship. MMSI: 247241200.

Date/timePositionNaut miles runAvg speedWind from/ knotsBaromVisibWave heightAir tempDewpointWater temp
2018-May-18 07:00N 42°27' E 039°33'814.0
2018-May-18 06:27N 42°28' E 039°23'614.2
2018-May-18 06:00N 42°29' E 039°14'1614.5
2018-May-18 04:54N 42°33' E 038°53'1213.9
2018-May-18 04:02N 42°35' E 038°37'113.4
2018-May-18 04:00N 42°35' E 038°36'713.2
2018-May-18 03:30N 42°36' E 038°27'612.2
2018-May-18 02:59N 42°37' E 038°19'712.1
2018-May-18 02:24N 42°38' E 038°10'512.0
2018-May-18 02:00N 42°39' E 038°03'612.1
2018-May-18 01:30N 42°40' E 037°55'1312.3
2018-May-18 00:26N 42°43' E 037°37'512.4
2018-May-18 00:00N 42°44' E 037°30'612.3
2018-May-17 23:30N 42°45' E 037°22'612.3
2018-May-17 23:00N 42°46' E 037°14'612.5
2018-May-17 22:30N 42°46' E 037°05'612.4
2018-May-17 22:00N 42°48' E 036°57'712.5
2018-May-17 21:25N 42°49' E 036°47'2512.5
2018-May-17 19:28N 42°53' E 036°14'512.1
2018-May-17 19:00N 42°54' E 036°07'612.1
2018-May-17 18:30N 42°55' E 035°59'612.0
2018-May-17 18:00N 42°56' E 035°51'4 8.5
2018-May-17 17:30N 42°56' E 035°45'4 7.8
2018-May-17 17:00N 42°56' E 035°40'510.8
2018-May-17 16:31N 42°56' E 035°32'713.9
2018-May-17 16:00N 42°56' E 035°23'713.8
2018-May-17 15:30N 42°56' E 035°13'713.8
2018-May-17 15:00N 42°56' E 035°04'713.6
2018-May-17 14:30N 42°57' E 034°55'1613.4
2018-May-17 13:16N 42°56' E 034°32'3513.1
2018-May-17 10:39N 42°56' E 033°45'313.1
2018-May-17 10:24N 42°56' E 033°40'713.3
2018-May-17 09:53N 42°55' E 033°31'384 9.2
2018-May-15 16:02N 39°56' E 025°58'0 9.1
2018-May-15 16:01N 39°56' E 025°58'611.1
2018-May-15 15:29N 39°51' E 025°53'1511.6
2018-May-15 14:13N 39°38' E 025°46'10812.9
2018-May-15 05:48N 37°50' E 025°43'1814.3
2018-May-15 04:33N 37°33' E 025°51'113.9
2018-May-15 04:30N 37°32' E 025°52'713.9
2018-May-15 04:00N 37°26' E 025°54'  

Dump ship's entire track history